createdAt,value
2022-11-17T00:01:21.831Z,11.21
2022-11-17T00:16:23.319Z,11.19
2022-11-17T00:31:44.327Z,10.71
2022-11-17T00:46:45.899Z,11.36
2022-11-17T01:01:47.531Z,10.90
2022-11-17T01:16:49.509Z,10.74
2022-11-17T01:31:51.699Z,10.46
2022-11-17T01:46:59.684Z,10.16
2022-11-17T02:02:02.358Z,10.05
2022-11-17T02:17:11.586Z,10.48
2022-11-17T02:32:30.786Z,10.76
2022-11-17T02:47:34.030Z,10.64
2022-11-17T03:02:53.932Z,11.04
2022-11-17T03:18:10.705Z,11.54
2022-11-17T03:33:15.355Z,11.54
2022-11-17T03:48:28.875Z,11.59
2022-11-17T04:03:32.321Z,11.33
2022-11-17T04:18:34.057Z,10.72
2022-11-17T04:33:36.869Z,11.05
2022-11-17T04:48:38.472Z,11.41
2022-11-17T05:03:47.565Z,11.46
2022-11-17T05:18:49.021Z,11.50
2022-11-17T05:33:50.823Z,11.05
2022-11-17T05:48:52.577Z,11.31
2022-11-17T06:03:56.284Z,11.63
2022-11-17T06:19:09.733Z,12.40
2022-11-17T06:34:11.451Z,11.90
2022-11-17T06:49:12.933Z,11.85
2022-11-17T07:04:14.436Z,12.31
2022-11-17T07:19:15.933Z,12.62
2022-11-17T07:34:17.462Z,12.59
2022-11-17T07:49:18.976Z,13.94
2022-11-17T08:04:20.529Z,14.92
2022-11-17T08:19:22.085Z,15.10
2022-11-17T08:34:23.591Z,16.35
2022-11-17T08:49:25.183Z,18.27
2022-11-17T09:04:26.846Z,19.98
2022-11-17T09:19:28.383Z,20.34
2022-11-17T09:34:29.937Z,17.33
2022-11-17T09:49:58.629Z,18.65
2022-11-17T10:05:01.000Z,17.09
2022-11-17T10:20:13.727Z,16.78
2022-11-17T10:35:20.642Z,17.92
2022-11-17T10:50:23.688Z,17.51
2022-11-17T11:05:25.321Z,16.98
2022-11-17T11:20:34.008Z,16.15
2022-11-17T11:36:04.605Z,17.20
2022-11-17T11:51:11.605Z,17.02
2022-11-17T12:06:36.943Z,17.39
2022-11-17T12:21:38.588Z,17.20
2022-11-17T12:36:40.108Z,17.58
2022-11-17T12:51:52.375Z,16.82
2022-11-17T13:07:05.361Z,17.44
2022-11-17T13:22:16.495Z,16.75
2022-11-17T13:37:22.481Z,17.27
2022-11-17T13:52:37.924Z,16.16
2022-11-17T14:07:40.843Z,16.02
2022-11-17T14:22:58.841Z,15.93
2022-11-17T14:38:00.845Z,15.70
2022-11-17T14:53:02.371Z,15.88
2022-11-17T15:08:03.980Z,15.92
2022-11-17T15:23:05.512Z,14.67
2022-11-17T15:38:07.002Z,13.65
2022-11-17T15:53:08.473Z,14.33
2022-11-17T16:08:09.951Z,13.82
2022-11-17T16:23:11.600Z,13.85
2022-11-17T16:38:14.086Z,13.52
2022-11-17T16:53:15.559Z,13.25
2022-11-17T17:08:17.070Z,13.23
2022-11-17T17:23:18.910Z,13.20
2022-11-17T17:38:20.487Z,13.35
2022-11-17T17:53:21.988Z,13.46
2022-11-17T18:08:23.686Z,13.24
2022-11-17T18:23:25.232Z,13.07
2022-11-17T18:38:26.705Z,12.82
2022-11-17T18:53:28.776Z,13.43
2022-11-17T19:08:30.979Z,13.52
2022-11-17T19:23:33.705Z,13.15
2022-11-17T19:38:37.951Z,12.70
2022-11-17T19:53:39.632Z,12.46
2022-11-17T20:08:41.406Z,12.52
2022-11-17T20:23:43.657Z,12.79
2022-11-17T20:38:45.683Z,12.93
2022-11-17T20:53:47.179Z,12.37
2022-11-17T21:08:48.696Z,11.75
2022-11-17T21:23:53.531Z,11.79
2022-11-17T21:38:55.336Z,11.45
2022-11-17T21:53:57.753Z,11.04
2022-11-17T22:16:13.368Z,11.13
2022-11-17T22:31:14.917Z,10.22
2022-11-17T22:46:16.474Z,10.63
2022-11-17T23:01:18.124Z,10.80
2022-11-17T23:16:19.728Z,11.78
2022-11-17T23:31:21.277Z,10.45
2022-11-17T23:46:24.039Z,10.42
